Time;durP1;ratioP1;P1;durP2;ratioP2;P2;SDS_P1;SDS_P2;PMS_P1;PMS_P2;Temp;Humidity;BMP_temperature;BMP_pressure;BME280_temperature;BME280_humidity;BME280_pressure;Samples;Min_cycle;Max_cycle;Signal;HPM_P1;HPM_P2
2023/09/22 00:00:16;;;;;;;1.00;1.00;;;;;;;;;;5115112;27;20240;-89
2023/09/22 00:02:44;;;;;;;0.80;0.80;;;;;;;;;;5096558;28;20204;-87
2023/09/22 00:05:13;;;;;;;3.17;1.37;;;;;;;;;;5094741;28;20239;-85
2023/09/22 00:07:41;;;;;;;0.90;0.90;;;;;;;;;;5095164;28;20217;-86
2023/09/22 00:10:12;;;;;;;1.10;1.00;;;;;;;;;;5094777;28;20605;-86
2023/09/22 00:12:39;;;;;;;1.33;1.13;;;;;;;;;;5094874;28;20213;-85
2023/09/22 00:15:07;;;;;;;1.07;1.07;;;;;;;;;;5094416;28;20236;-85
2023/09/22 00:17:35;;;;;;;1.00;1.00;;;;;;;;;;5094150;28;20209;-85
2023/09/22 00:20:02;;;;;;;1.10;1.10;;;;;;;;;;5093938;28;20694;-87
2023/09/22 00:22:30;;;;;;;2.07;1.03;;;;;;;;;;5094787;28;20232;-85
2023/09/22 00:24:57;;;;;;;1.20;1.20;;;;;;;;;;5094069;28;20715;-88
2023/09/22 00:27:25;;;;;;;1.20;1.10;;;;;;;;;;5094820;28;20208;-87
2023/09/22 00:29:52;;;;;;;1.27;0.90;;;;;;;;;;5094086;28;20239;-84
2023/09/22 00:32:20;;;;;;;1.00;1.00;;;;;;;;;;5094952;28;20201;-86
2023/09/22 00:34:47;;;;;;;0.80;0.80;;;;;;;;;;5094181;28;20240;-87
2023/09/22 00:37:14;;;;;;;1.10;1.00;;;;;;;;;;5094931;28;20216;-84
2023/09/22 00:39:41;;;;;;;1.10;1.10;;;;;;;;;;5094024;28;20232;-86
2023/09/22 00:42:09;;;;;;;1.50;1.40;;;;;;;;;;5094222;28;20278;-85
2023/09/22 00:44:38;;;;;;;0.93;0.93;;;;;;;;;;5093626;28;20239;-86
2023/09/22 00:47:06;;;;;;;1.10;1.00;;;;;;;;;;5096040;28;20208;-86
2023/09/22 00:49:34;;;;;;;2.43;1.00;;;;;;;;;;5094421;28;20301;-87
2023/09/22 00:52:02;;;;;;;1.20;0.90;;;;;;;;;;5094403;28;20216;-86
2023/09/22 00:54:29;;;;;;;1.00;0.90;;;;;;;;;;5094087;28;20233;-85
2023/09/22 00:56:57;;;;;;;2.03;1.00;;;;;;;;;;5094949;28;20212;-86
2023/09/22 00:59:24;;;;;;;1.03;0.80;;;;;;;;;;5094530;28;20626;-85
2023/09/22 01:01:53;;;;;;;1.07;0.93;;;;;;;;;;5106024;28;20559;-85
2023/09/22 01:04:21;;;;;;;0.90;0.90;;;;;;;;;;5114528;27;20704;-85
2023/09/22 01:06:49;;;;;;;1.33;0.90;;;;;;;;;;5099321;28;20678;-86
2023/09/22 01:09:16;;;;;;;1.07;1.00;;;;;;;;;;5102600;28;20235;-85
2023/09/22 01:11:44;;;;;;;0.77;0.77;;;;;;;;;;5114334;28;20204;-85
2023/09/22 01:14:11;;;;;;;1.00;1.00;;;;;;;;;;5113965;27;20235;-85
2023/09/22 01:16:39;;;;;;;1.03;0.93;;;;;;;;;;5114627;28;20208;-86
2023/09/22 01:19:14;;;;;;;1.03;1.00;;;;;;;;;;5113539;27;20196;-85
2023/09/22 01:21:42;;;;;;;1.63;0.90;;;;;;;;;;5114482;28;20207;-85
2023/09/22 01:24:11;;;;;;;4.87;1.03;;;;;;;;;;5113617;27;20231;-85
2023/09/22 01:26:38;;;;;;;0.83;0.83;;;;;;;;;;5095196;28;20208;-85
2023/09/22 01:29:05;;;;;;;1.20;1.10;;;;;;;;;;5092717;28;20246;-85
2023/09/22 01:31:33;;;;;;;0.80;0.80;;;;;;;;;;5094637;28;20207;-86
2023/09/22 01:34:00;;;;;;;1.63;0.87;;;;;;;;;;5093467;28;20410;-85
2023/09/22 01:36:27;;;;;;;0.90;0.87;;;;;;;;;;5094038;28;20201;-85
2023/09/22 01:38:57;;;;;;;1.10;1.00;;;;;;;;;;5093422;28;20205;-85
2023/09/22 01:41:24;;;;;;;0.80;0.80;;;;;;;;;;5094478;28;20233;-85
2023/09/22 01:43:52;;;;;;;1.03;1.00;;;;;;;;;;5116433;22;20231;-88
2023/09/22 01:46:19;;;;;;;1.47;0.97;;;;;;;;;;5108326;28;20307;-89
2023/09/22 01:48:46;;;;;;;0.90;0.90;;;;;;;;;;5101041;28;20228;-88
2023/09/22 01:51:13;;;;;;;2.73;0.90;;;;;;;;;;5092359;28;20239;-88
2023/09/22 01:53:40;;;;;;;0.90;0.90;;;;;;;;;;5101188;28;20224;-87
2023/09/22 01:56:09;;;;;;;1.10;1.10;;;;;;;;;;5091965;28;20229;-88
2023/09/22 01:58:36;;;;;;;3.90;1.00;;;;;;;;;;5092594;28;20201;-88
2023/09/22 02:01:03;;;;;;;0.80;0.80;;;;;;;;;;5092263;28;20232;-87
2023/09/22 02:03:30;;;;;;;1.20;1.03;;;;;;;;;;5092337;28;20212;-88
2023/09/22 02:05:59;;;;;;;1.27;0.90;;;;;;;;;;5091874;28;20235;-87
2023/09/22 02:08:26;;;;;;;1.30;1.20;;;;;;;;;;5092256;28;20231;-88
2023/09/22 02:10:53;;;;;;;1.07;1.07;;;;;;;;;;5091691;28;20701;-88
2023/09/22 02:13:22;;;;;;;0.87;0.87;;;;;;;;;;5092221;28;20212;-88
2023/09/22 02:15:49;;;;;;;1.00;1.00;;;;;;;;;;5091840;28;20757;-88
2023/09/22 02:18:16;;;;;;;1.40;0.90;;;;;;;;;;5075928;28;20208;-87
2023/09/22 02:20:43;;;;;;;1.33;1.10;;;;;;;;;;5091454;28;20233;-88
2023/09/22 02:23:11;;;;;;;0.90;0.90;;;;;;;;;;5091833;28;20220;-88
2023/09/22 02:25:38;;;;;;;1.40;1.00;;;;;;;;;;5091542;28;20236;-89
2023/09/22 02:28:05;;;;;;;1.83;1.03;;;;;;;;;;5091786;28;20204;-88
2023/09/22 02:30:37;;;;;;;1.03;0.90;;;;;;;;;;5091352;28;20224;-88
2023/09/22 02:33:04;;;;;;;1.07;1.07;;;;;;;;;;5091820;28;20325;-87
2023/09/22 02:35:31;;;;;;;2.83;1.10;;;;;;;;;;5091296;28;20232;-88
2023/09/22 02:37:58;;;;;;;2.07;1.10;;;;;;;;;;5091701;28;20386;-88
2023/09/22 02:40:25;;;;;;;1.50;0.93;;;;;;;;;;5091661;28;20228;-88
2023/09/22 02:42:52;;;;;;;1.10;1.00;;;;;;;;;;5091835;28;20227;-87
2023/09/22 02:45:19;;;;;;;1.00;1.00;;;;;;;;;;5091729;28;20244;-88
2023/09/22 02:47:48;;;;;;;1.90;1.00;;;;;;;;;;5091601;28;20694;-88
2023/09/22 02:50:17;;;;;;;0.87;0.87;;;;;;;;;;5091080;28;20232;-88
2023/09/22 02:52:44;;;;;;;2.77;1.00;;;;;;;;;;5091696;28;20276;-88
2023/09/22 02:55:13;;;;;;;1.60;1.00;;;;;;;;;;5091118;28;20237;-88
2023/09/22 02:57:42;;;;;;;1.00;0.93;;;;;;;;;;5091755;28;20207;-88
2023/09/22 03:00:14;;;;;;;1.23;1.10;;;;;;;;;;5090977;28;20701;-88
2023/09/22 03:02:41;;;;;;;1.20;1.20;;;;;;;;;;5091767;28;20221;-88
2023/09/22 03:05:10;;;;;;;1.27;1.17;;;;;;;;;;5090746;28;20246;-88
2023/09/22 03:07:38;;;;;;;0.93;0.93;;;;;;;;;;5091685;28;20258;-88
2023/09/22 03:10:06;;;;;;;0.90;0.90;;;;;;;;;;5090736;28;20236;-88
2023/09/22 03:12:33;;;;;;;0.80;0.80;;;;;;;;;;5091812;28;20211;-88
2023/09/22 03:15:00;;;;;;;1.47;1.37;;;;;;;;;;5091006;28;20239;-88
2023/09/22 03:17:27;;;;;;;0.97;0.97;;;;;;;;;;5091425;28;20204;-88
2023/09/22 03:19:55;;;;;;;0.60;0.60;;;;;;;;;;5090824;28;20232;-88
2023/09/22 03:22:23;;;;;;;0.90;0.90;;;;;;;;;;5091288;28;20227;-88
2023/09/22 03:24:51;;;;;;;0.90;0.90;;;;;;;;;;5090849;28;20239;-87
2023/09/22 03:27:18;;;;;;;1.17;1.07;;;;;;;;;;5074879;28;20215;-88
2023/09/22 03:29:45;;;;;;;1.03;1.03;;;;;;;;;;5090774;28;20220;-88
2023/09/22 03:32:14;;;;;;;1.40;0.87;;;;;;;;;;5091312;28;20208;-88
2023/09/22 03:34:41;;;;;;;0.93;0.90;;;;;;;;;;5090649;28;20701;-87
2023/09/22 03:37:08;;;;;;;1.87;1.10;;;;;;;;;;5091341;28;20286;-88
2023/09/22 03:39:36;;;;;;;0.77;0.77;;;;;;;;;;5090713;28;20225;-88
2023/09/22 03:42:03;;;;;;;1.00;0.90;;;;;;;;;;5091081;28;20217;-88
2023/09/22 03:44:30;;;;;;;1.77;1.10;;;;;;;;;;5090444;28;20312;-88
2023/09/22 03:46:58;;;;;;;1.70;1.20;;;;;;;;;;5092015;28;20205;-88
2023/09/22 03:49:25;;;;;;;2.33;1.00;;;;;;;;;;5091581;28;20259;-89
2023/09/22 03:51:52;;;;;;;1.17;1.17;;;;;;;;;;5092157;28;20196;-88
2023/09/22 03:54:19;;;;;;;1.50;0.87;;;;;;;;;;5094876;28;20263;-88
2023/09/22 03:56:48;;;;;;;1.73;0.90;;;;;;;;;;5095671;28;20204;-88
2023/09/22 03:59:15;;;;;;;1.93;1.03;;;;;;;;;;5094093;28;20239;-88
2023/09/22 04:01:42;;;;;;;0.90;0.90;;;;;;;;;;5094689;28;20289;-87
2023/09/22 04:04:09;;;;;;;1.73;1.30;;;;;;;;;;5094157;28;20260;-88
2023/09/22 04:06:36;;;;;;;1.00;1.00;;;;;;;;;;5094666;28;20196;-88
2023/09/22 04:09:03;;;;;;;1.20;1.13;;;;;;;;;;5093878;28;20205;-88
2023/09/22 04:11:31;;;;;;;1.33;1.23;;;;;;;;;;5094737;28;20287;-87
2023/09/22 04:13:59;;;;;;;1.77;1.20;;;;;;;;;;5093926;28;20737;-88
2023/09/22 04:16:26;;;;;;;1.20;1.10;;;;;;;;;;5094500;28;20698;-87
2023/09/22 04:18:54;;;;;;;1.63;1.13;;;;;;;;;;5093275;28;20701;-87
2023/09/22 04:21:22;;;;;;;1.30;1.20;;;;;;;;;;5094253;28;20240;-88
2023/09/22 04:23:51;;;;;;;1.13;1.10;;;;;;;;;;5094125;28;20220;-88
2023/09/22 04:26:18;;;;;;;0.97;0.97;;;;;;;;;;5093788;28;20251;-88
2023/09/22 04:28:46;;;;;;;1.93;1.03;;;;;;;;;;5094232;28;20201;-88
2023/09/22 04:31:14;;;;;;;1.17;1.10;;;;;;;;;;5093333;28;20239;-87
2023/09/22 04:33:41;;;;;;;1.23;1.13;;;;;;;;;;5094198;28;20220;-88
2023/09/22 04:36:10;;;;;;;1.00;1.00;;;;;;;;;;5093634;28;20224;-89
2023/09/22 04:38:38;;;;;;;1.33;1.30;;;;;;;;;;5094096;28;20288;-88
2023/09/22 04:41:06;;;;;;;1.80;1.27;;;;;;;;;;5093257;28;20714;-87
2023/09/22 04:43:35;;;;;;;1.30;1.10;;;;;;;;;;5093625;28;20706;-88
2023/09/22 04:46:03;;;;;;;0.93;0.93;;;;;;;;;;5093392;28;20767;-88
2023/09/22 04:48:31;;;;;;;1.27;1.10;;;;;;;;;;5093968;28;20266;-88
2023/09/22 04:50:59;;;;;;;2.10;1.47;;;;;;;;;;5093302;28;20225;-89
2023/09/22 04:53:28;;;;;;;1.57;1.10;;;;;;;;;;5093743;28;20193;-88
2023/09/22 04:56:02;;;;;;;1.53;1.37;;;;;;;;;;5093985;28;20221;-88
2023/09/22 04:58:29;;;;;;;3.17;1.00;;;;;;;;;;5078603;28;20259;-88
2023/09/22 05:00:58;;;;;;;1.57;1.47;;;;;;;;;;5093161;28;20225;-90
2023/09/22 05:03:26;;;;;;;1.17;1.10;;;;;;;;;;5078457;28;20216;-90
2023/09/22 05:05:54;;;;;;;1.00;1.00;;;;;;;;;;5093804;28;20282;-90
2023/09/22 05:08:21;;;;;;;1.13;1.10;;;;;;;;;;5095558;28;20207;-91
2023/09/22 05:10:49;;;;;;;1.50;1.10;;;;;;;;;;5093003;28;20232;-89
2023/09/22 05:13:16;;;;;;;1.80;1.17;;;;;;;;;;5093405;28;20205;-90
2023/09/22 05:15:44;;;;;;;1.03;0.80;;;;;;;;;;5094356;28;20262;-89
2023/09/22 05:18:13;;;;;;;0.90;0.90;;;;;;;;;;5094350;28;20208;-90
2023/09/22 05:20:40;;;;;;;1.50;1.40;;;;;;;;;;5093512;28;20250;-90
2023/09/22 05:23:09;;;;;;;1.10;1.00;;;;;;;;;;5093715;28;20765;-89
2023/09/22 05:25:40;;;;;;;1.43;1.33;;;;;;;;;;5093772;28;20233;-90
2023/09/22 05:28:09;;;;;;;1.00;0.97;;;;;;;;;;5093682;28;20215;-89
2023/09/22 05:30:38;;;;;;;3.13;1.17;;;;;;;;;;5094375;28;20233;-89
2023/09/22 05:33:07;;;;;;;1.60;1.00;;;;;;;;;;5094418;28;20208;-90
2023/09/22 05:35:34;;;;;;;1.10;1.10;;;;;;;;;;5094141;28;20326;-90
2023/09/22 05:38:02;;;;;;;1.10;1.00;;;;;;;;;;5093565;28;20208;-90
2023/09/22 05:40:31;;;;;;;1.00;1.00;;;;;;;;;;5093565;28;20224;-91
2023/09/22 05:42:58;;;;;;;1.03;1.03;;;;;;;;;;5094191;28;20228;-91
2023/09/22 05:45:25;;;;;;;2.50;1.20;;;;;;;;;;5093179;28;20236;-90
2023/09/22 05:47:52;;;;;;;0.93;0.90;;;;;;;;;;5093603;28;20713;-90
2023/09/22 05:50:19;;;;;;;1.40;1.10;;;;;;;;;;5093169;28;20239;-89
2023/09/22 05:52:46;;;;;;;1.07;1.03;;;;;;;;;;5092813;28;20212;-91
2023/09/22 05:55:13;;;;;;;1.63;1.13;;;;;;;;;;5091923;28;20237;-89
2023/09/22 05:57:42;;;;;;;2.93;0.87;;;;;;;;;;5092727;28;20204;-90
2023/09/22 06:00:15;;;;;;;1.73;1.00;;;;;;;;;;5092386;28;20243;-90
2023/09/22 06:02:42;;;;;;;1.20;1.10;;;;;;;;;;5092784;28;20220;-91
2023/09/22 06:05:10;;;;;;;1.10;1.10;;;;;;;;;;5092271;28;20244;-91
2023/09/22 06:07:37;;;;;;;1.13;1.13;;;;;;;;;;5092558;28;20204;-89
2023/09/22 06:10:06;;;;;;;3.27;1.27;;;;;;;;;;5092129;28;20254;-91
2023/09/22 06:12:33;;;;;;;1.80;1.10;;;;;;;;;;5092431;28;20209;-90
2023/09/22 06:15:02;;;;;;;0.97;0.97;;;;;;;;;;5092010;28;20236;-90
2023/09/22 06:17:30;;;;;;;1.20;1.20;;;;;;;;;;5092435;28;20209;-91
2023/09/22 06:19:57;;;;;;;1.27;1.17;;;;;;;;;;5091769;28;20282;-91
2023/09/22 06:22:24;;;;;;;1.00;1.00;;;;;;;;;;5092407;28;20353;-90
2023/09/22 06:24:51;;;;;;;1.20;1.20;;;;;;;;;;5091607;28;20236;-90
2023/09/22 06:27:19;;;;;;;1.27;1.17;;;;;;;;;;5092199;28;20204;-90
2023/09/22 06:29:46;;;;;;;2.77;1.30;;;;;;;;;;5091374;28;20424;-91
2023/09/22 06:32:14;;;;;;;2.50;1.27;;;;;;;;;;5092455;28;20668;-90
2023/09/22 06:34:42;;;;;;;2.63;1.40;;;;;;;;;;5091634;28;20596;-91
2023/09/22 06:37:09;;;;;;;1.43;1.30;;;;;;;;;;5092252;28;20239;-90
2023/09/22 06:39:36;;;;;;;1.20;1.10;;;;;;;;;;5091581;28;20232;-90
2023/09/22 06:42:03;;;;;;;1.80;1.30;;;;;;;;;;5092229;28;20318;-90
2023/09/22 06:44:30;;;;;;;1.30;1.20;;;;;;;;;;5091374;28;20240;-90
2023/09/22 06:46:57;;;;;;;1.13;1.13;;;;;;;;;;5092006;28;20219;-91
2023/09/22 06:49:28;;;;;;;1.40;1.30;;;;;;;;;;5091333;28;20695;-90
2023/09/22 06:51:55;;;;;;;1.10;1.10;;;;;;;;;;5092296;28;20231;-90
2023/09/22 06:54:22;;;;;;;1.80;1.40;;;;;;;;;;5091412;28;20231;-90
2023/09/22 06:56:52;;;;;;;2.63;1.30;;;;;;;;;;5091849;28;20685;-90
2023/09/22 06:59:22;;;;;;;1.30;1.20;;;;;;;;;;5091544;28;20697;-90
2023/09/22 07:01:49;;;;;;;1.27;1.17;;;;;;;;;;5092354;28;20213;-90
2023/09/22 07:04:17;;;;;;;1.10;1.10;;;;;;;;;;5091291;28;20236;-91
2023/09/22 07:06:45;;;;;;;1.80;1.27;;;;;;;;;;5092116;28;20197;-90
2023/09/22 07:09:13;;;;;;;1.03;1.03;;;;;;;;;;5091456;28;20240;-90
2023/09/22 07:11:41;;;;;;;1.03;1.03;;;;;;;;;;5092180;28;20242;-91
2023/09/22 07:14:08;;;;;;;1.27;1.17;;;;;;;;;;5091989;28;20225;-90
2023/09/22 07:16:35;;;;;;;1.33;1.10;;;;;;;;;;5092926;28;20213;-90
2023/09/22 07:19:02;;;;;;;1.13;1.13;;;;;;;;;;5091901;28;20211;-90
2023/09/22 07:21:29;;;;;;;1.20;1.20;;;;;;;;;;5093820;28;20208;-91
2023/09/22 07:23:58;;;;;;;0.90;0.90;;;;;;;;;;5117272;28;20232;-90
2023/09/22 07:26:26;;;;;;;1.63;1.53;;;;;;;;;;5117544;28;20189;-90
2023/09/22 07:28:53;;;;;;;1.20;1.10;;;;;;;;;;5120621;28;20184;-89
2023/09/22 07:31:20;;;;;;;1.30;1.20;;;;;;;;;;5121637;28;20191;-90
2023/09/22 07:33:48;;;;;;;1.23;1.13;;;;;;;;;;5120653;28;20209;-90
2023/09/22 07:36:16;;;;;;;1.20;1.10;;;;;;;;;;5120983;28;20220;-90
2023/09/22 07:38:43;;;;;;;1.30;1.20;;;;;;;;;;5121248;28;20184;-90
2023/09/22 07:41:12;;;;;;;1.27;1.00;;;;;;;;;;5118959;28;20232;-90
2023/09/22 07:46:10;;;;;;;1.53;1.43;;;;;;;;;;5023806;28;20219;-91
2023/09/22 07:48:38;;;;;;;0.90;0.90;;;;;;;;;;5029291;28;20206;-91
2023/09/22 07:51:05;;;;;;;0.93;0.93;;;;;;;;;;5028153;28;20630;-91
2023/09/22 07:53:33;;;;;;;1.10;1.10;;;;;;;;;;5025642;28;20199;-91
2023/09/22 07:56:00;;;;;;;1.53;0.97;;;;;;;;;;5032113;28;20234;-91
2023/09/22 07:58:29;;;;;;;4.00;1.00;;;;;;;;;;5036989;28;20673;-91
2023/09/22 08:00:58;;;;;;;2.80;1.33;;;;;;;;;;5034959;28;20234;-91
2023/09/22 08:03:26;;;;;;;0.93;0.93;;;;;;;;;;5018623;28;20262;-92
2023/09/22 08:05:53;;;;;;;1.13;1.10;;;;;;;;;;5018052;28;20293;-91
2023/09/22 08:08:20;;;;;;;1.33;1.03;;;;;;;;;;5019732;28;20215;-91
2023/09/22 08:10:47;;;;;;;1.20;1.10;;;;;;;;;;5019407;28;20235;-88
2023/09/22 08:13:14;;;;;;;1.63;1.00;;;;;;;;;;5037676;28;20213;-89
2023/09/22 08:15:43;;;;;;;1.07;0.97;;;;;;;;;;5036931;28;20258;-89
2023/09/22 08:18:10;;;;;;;1.00;0.93;;;;;;;;;;5037543;28;20207;-90
2023/09/22 08:20:38;;;;;;;1.03;1.03;;;;;;;;;;5036552;28;20234;-90
2023/09/22 08:23:05;;;;;;;2.40;1.20;;;;;;;;;;5036726;28;20241;-89
2023/09/22 08:25:34;;;;;;;0.70;0.70;;;;;;;;;;5036150;28;20266;-88
2023/09/22 08:28:02;;;;;;;0.90;0.90;;;;;;;;;;5039959;28;20220;-87
2023/09/22 08:30:30;;;;;;;0.87;0.87;;;;;;;;;;5020834;28;20265;-88
2023/09/22 08:32:58;;;;;;;0.87;0.87;;;;;;;;;;5019208;28;20299;-87
2023/09/22 08:35:26;;;;;;;1.00;0.93;;;;;;;;;;5017179;28;20640;-87
2023/09/22 08:37:53;;;;;;;0.53;0.53;;;;;;;;;;5016783;28;20204;-87
2023/09/22 08:40:20;;;;;;;1.47;0.90;;;;;;;;;;5015680;28;20895;-88
2023/09/22 08:42:51;;;;;;;0.80;0.80;;;;;;;;;;5017055;28;20199;-87
2023/09/22 08:45:18;;;;;;;0.87;0.87;;;;;;;;;;5016199;28;20235;-86
2023/09/22 08:47:46;;;;;;;1.00;1.00;;;;;;;;;;5016227;28;20219;-86
2023/09/22 08:50:15;;;;;;;2.27;1.00;;;;;;;;;;5015874;28;20305;-86
2023/09/22 08:52:43;;;;;;;0.70;0.70;;;;;;;;;;5016784;28;20211;-86
2023/09/22 08:55:11;;;;;;;0.83;0.83;;;;;;;;;;5015697;28;20239;-87
2023/09/22 08:57:40;;;;;;;1.07;1.00;;;;;;;;;;5017187;28;20288;-87
2023/09/22 09:00:12;;;;;;;2.20;1.03;;;;;;;;;;5015169;28;20234;-88
2023/09/22 09:02:40;;;;;;;1.17;1.00;;;;;;;;;;5015404;28;20290;-86
2023/09/22 09:05:24;;;;;;;0.93;0.93;;;;;;;;;;5015099;28;20270;-86
2023/09/22 09:07:52;;;;;;;0.70;0.70;;;;;;;;;;5015168;28;20366;-87
2023/09/22 09:10:34;;;;;;;1.10;0.93;;;;;;;;;;5015261;28;20257;-86
2023/09/22 09:13:06;;;;;;;1.87;0.90;;;;;;;;;;5015729;28;20208;-86
2023/09/22 09:15:41;;;;;;;0.97;0.93;;;;;;;;;;5014478;28;20298;-86
2023/09/22 09:18:11;;;;;;;1.40;1.00;;;;;;;;;;5014897;28;20341;-87
2023/09/22 09:20:41;;;;;;;1.13;0.90;;;;;;;;;;5014678;28;20608;-87
2023/09/22 09:23:12;;;;;;;0.83;0.83;;;;;;;;;;5014800;28;20239;-86
2023/09/22 09:25:41;;;;;;;0.80;0.80;;;;;;;;;;5013842;28;20243;-87
2023/09/22 09:28:08;;;;;;;1.70;1.10;;;;;;;;;;5014421;28;20270;-86
2023/09/22 09:30:36;;;;;;;1.07;0.90;;;;;;;;;;5014198;28;20259;-88
2023/09/22 09:33:10;;;;;;;0.90;0.80;;;;;;;;;;5014958;28;20779;-86
2023/09/22 09:35:39;;;;;;;0.60;0.60;;;;;;;;;;5013343;28;20293;-87
2023/09/22 09:38:08;;;;;;;0.75;0.75;;;;;;;;;;5013973;28;20239;-86
2023/09/22 09:40:37;;;;;;;0.93;0.88;;;;;;;;;;5013651;28;20242;-87
2023/09/22 09:43:06;;;;;;;0.85;0.82;;;;;;;;;;5014837;28;20253;-88
2023/09/22 09:45:34;;;;;;;1.02;1.00;;;;;;;;;;5013195;28;20243;-87
2023/09/22 09:48:03;;;;;;;1.00;1.00;;;;;;;;;;5013699;28;20203;-86
2023/09/22 09:50:32;;;;;;;1.08;1.05;;;;;;;;;;5013597;28;20238;-86
2023/09/22 09:53:04;;;;;;;1.45;1.08;;;;;;;;;;5014561;28;20222;-86
2023/09/22 09:55:32;;;;;;;0.77;0.77;;;;;;;;;;5013631;28;20239;-86
2023/09/22 09:58:01;;;;;;;1.05;1.00;;;;;;;;;;5020871;28;20237;-86
2023/09/22 10:00:28;;;;;;;1.02;0.90;;;;;;;;;;5015260;28;20235;-90
2023/09/22 10:02:58;;;;;;;1.55;0.90;;;;;;;;;;5016432;28;20226;-89
2023/09/22 10:05:25;;;;;;;1.25;0.90;;;;;;;;;;5016095;28;20239;-91
2023/09/22 10:07:57;;;;;;;1.65;1.50;;;;;;;;;;5016549;28;20211;-90
2023/09/22 10:10:25;;;;;;;1.52;0.88;;;;;;;;;;5014868;28;20235;-87
2023/09/22 10:12:52;;;;;;;1.00;0.90;;;;;;;;;;5014992;28;20684;-89
2023/09/22 10:15:42;;;;;;;0.60;0.60;;;;;;;;;;5017259;28;20246;-87
2023/09/22 10:18:12;;;;;;;1.17;0.60;;;;;;;;;;5018829;28;20665;-88
2023/09/22 10:20:46;;;;;;;1.05;0.98;;;;;;;;;;5016976;28;20227;-86
2023/09/22 10:23:17;;;;;;;0.75;0.75;;;;;;;;;;5013905;28;20293;-88
2023/09/22 10:26:06;;;;;;;0.77;0.70;;;;;;;;;;5013402;28;20239;-91
2023/09/22 10:28:35;;;;;;;1.30;0.95;;;;;;;;;;5014062;28;20204;-92
2023/09/22 10:31:03;;;;;;;1.20;1.10;;;;;;;;;;5014260;28;20235;-93
2023/09/22 10:33:32;;;;;;;1.10;0.93;;;;;;;;;;5014769;28;20215;-93
2023/09/22 10:35:59;;;;;;;0.98;0.80;;;;;;;;;;5013510;28;20235;-92
2023/09/22 10:38:26;;;;;;;1.20;0.77;;;;;;;;;;5014332;28;20211;-92
2023/09/22 10:41:06;;;;;;;1.08;0.93;;;;;;;;;;5014355;28;20771;-91
2023/09/22 10:43:36;;;;;;;0.68;0.60;;;;;;;;;;5014250;28;20203;-92
2023/09/22 10:46:03;;;;;;;1.23;0.70;;;;;;;;;;5015043;28;20671;-91
2023/09/22 10:48:35;;;;;;;1.23;1.05;;;;;;;;;;5015682;28;20218;-92
2023/09/22 10:51:02;;;;;;;1.35;0.85;;;;;;;;;;5014015;28;20322;-91
2023/09/22 10:53:33;;;;;;;0.98;0.88;;;;;;;;;;5014487;28;20207;-90
2023/09/22 10:56:03;;;;;;;0.65;0.65;;;;;;;;;;5015000;28;20231;-91
2023/09/22 10:58:30;;;;;;;0.60;0.60;;;;;;;;;;5015973;28;20210;-95
2023/09/22 11:00:59;;;;;;;0.88;0.88;;;;;;;;;;5013737;28;20246;-91
2023/09/22 11:03:27;;;;;;;0.82;0.80;;;;;;;;;;5013558;28;20631;-92
2023/09/22 11:06:06;;;;;;;2.35;1.00;;;;;;;;;;5013644;28;20257;-95
2023/09/22 11:08:33;;;;;;;0.68;0.68;;;;;;;;;;5014551;28;20207;-91
2023/09/22 11:11:01;;;;;;;0.55;0.52;;;;;;;;;;5013332;28;20239;-92
2023/09/22 11:13:28;;;;;;;0.70;0.70;;;;;;;;;;5013646;28;20211;-93
2023/09/22 11:15:56;;;;;;;0.98;0.98;;;;;;;;;;5013000;28;20230;-93
2023/09/22 11:18:26;;;;;;;0.80;0.77;;;;;;;;;;5014557;28;20259;-91
2023/09/22 11:20:57;;;;;;;1.65;0.80;;;;;;;;;;5012618;28;20829;-87
2023/09/22 11:23:25;;;;;;;0.75;0.75;;;;;;;;;;5012921;28;20207;-87
2023/09/22 11:25:55;;;;;;;1.25;0.75;;;;;;;;;;5012155;28;20239;-88
2023/09/22 11:28:23;;;;;;;0.60;0.60;;;;;;;;;;5012884;28;20207;-90
2023/09/22 11:30:50;;;;;;;2.38;0.80;;;;;;;;;;5013005;28;20712;-89
2023/09/22 11:33:18;;;;;;;0.82;0.80;;;;;;;;;;5013990;28;20246;-90
2023/09/22 11:35:47;;;;;;;0.65;0.65;;;;;;;;;;5012980;28;20253;-90
2023/09/22 11:38:27;;;;;;;2.00;0.80;;;;;;;;;;5013674;28;20218;-91
2023/09/22 11:41:03;;;;;;;0.77;0.73;;;;;;;;;;5012448;28;20604;-90
2023/09/22 11:43:31;;;;;;;0.50;0.50;;;;;;;;;;5013637;28;20305;-88
2023/09/22 11:46:05;;;;;;;0.43;0.43;;;;;;;;;;5013168;28;20235;-90
2023/09/22 11:48:32;;;;;;;1.50;0.52;;;;;;;;;;5013336;28;20238;-91
2023/09/22 11:51:01;;;;;;;1.13;0.80;;;;;;;;;;5013272;28;20239;-89
2023/09/22 11:53:29;;;;;;;0.70;0.60;;;;;;;;;;5013641;28;20281;-90
2023/09/22 11:55:56;;;;;;;2.70;0.75;;;;;;;;;;5012744;28;20297;-89
2023/09/22 11:58:23;;;;;;;0.60;0.50;;;;;;;;;;5013059;28;20211;-91
2023/09/22 12:00:51;;;;;;;0.50;0.50;;;;;;;;;;5012730;28;20235;-88
2023/09/22 12:03:18;;;;;;;2.22;0.60;;;;;;;;;;5013213;28;20203;-90
2023/09/22 12:05:46;;;;;;;1.73;0.60;;;;;;;;;;5012251;28;20721;-89
2023/09/22 12:08:15;;;;;;;0.65;0.50;;;;;;;;;;5012824;28;20231;-89
2023/09/22 12:10:42;;;;;;;0.45;0.45;;;;;;;;;;5012373;28;20587;-86
2023/09/22 12:13:09;;;;;;;1.27;0.90;;;;;;;;;;5013550;28;20629;-89
2023/09/22 12:15:36;;;;;;;1.42;0.68;;;;;;;;;;5015971;28;20239;-89
2023/09/22 12:18:04;;;;;;;0.73;0.73;;;;;;;;;;5016176;28;20203;-89
2023/09/22 12:20:32;;;;;;;1.80;0.60;;;;;;;;;;5015633;28;20239;-88
2023/09/22 12:22:59;;;;;;;1.50;0.80;;;;;;;;;;5016161;28;20215;-90
2023/09/22 12:25:27;;;;;;;0.60;0.60;;;;;;;;;;5015489;28;20243;-89
2023/09/22 12:27:54;;;;;;;2.17;0.68;;;;;;;;;;5015747;28;20208;-87
2023/09/22 12:30:21;;;;;;;0.93;0.60;;;;;;;;;;5015552;28;20231;-89
2023/09/22 12:32:48;;;;;;;0.77;0.77;;;;;;;;;;5015763;28;20670;-89
2023/09/22 12:35:15;;;;;;;1.55;0.60;;;;;;;;;;5015520;28;20235;-90
2023/09/22 12:37:42;;;;;;;1.77;0.68;;;;;;;;;;5015579;28;20199;-88
2023/09/22 12:40:10;;;;;;;1.40;0.77;;;;;;;;;;5015518;28;20239;-88
2023/09/22 12:42:38;;;;;;;1.95;0.77;;;;;;;;;;5015768;28;20214;-88
2023/09/22 12:45:06;;;;;;;1.20;0.77;;;;;;;;;;5015181;28;20235;-89
2023/09/22 12:47:33;;;;;;;1.42;0.68;;;;;;;;;;5015471;28;20744;-89
2023/09/22 12:50:04;;;;;;;0.68;0.45;;;;;;;;;;5015240;28;20587;-90
2023/09/22 12:52:32;;;;;;;0.57;0.50;;;;;;;;;;5015979;28;20215;-88
2023/09/22 12:54:59;;;;;;;0.65;0.50;;;;;;;;;;5014755;28;20243;-88
2023/09/22 12:57:28;;;;;;;1.30;0.93;;;;;;;;;;5017460;28;20208;-88
2023/09/22 12:59:57;;;;;;;0.93;0.70;;;;;;;;;;5014977;28;20262;-88
2023/09/22 13:02:25;;;;;;;0.40;0.40;;;;;;;;;;5015298;28;20211;-88
2023/09/22 13:04:52;;;;;;;0.50;0.50;;;;;;;;;;5014883;28;20230;-88
2023/09/22 13:07:19;;;;;;;0.60;0.60;;;;;;;;;;5015238;28;20651;-87
2023/09/22 13:09:46;;;;;;;0.68;0.68;;;;;;;;;;5014312;28;20709;-89
2023/09/22 13:12:14;;;;;;;0.95;0.55;;;;;;;;;;5015286;28;20200;-89
2023/09/22 13:14:41;;;;;;;0.52;0.52;;;;;;;;;;5014687;28;20254;-89
2023/09/22 13:17:09;;;;;;;1.08;0.73;;;;;;;;;;5016193;28;20218;-88
2023/09/22 13:19:38;;;;;;;0.30;0.30;;;;;;;;;;5018501;28;20239;-88
2023/09/22 13:22:05;;;;;;;1.58;0.80;;;;;;;;;;5019744;28;20211;-89
2023/09/22 13:24:32;;;;;;;0.30;0.30;;;;;;;;;;5015384;28;20293;-88
2023/09/22 13:26:59;;;;;;;2.17;0.70;;;;;;;;;;5014849;28;20218;-89
2023/09/22 13:29:26;;;;;;;0.90;0.50;;;;;;;;;;5014230;28;20235;-90
2023/09/22 13:31:53;;;;;;;1.33;0.77;;;;;;;;;;5014747;28;20214;-88
2023/09/22 13:34:22;;;;;;;0.75;0.52;;;;;;;;;;5014275;28;20318;-89
2023/09/22 13:36:49;;;;;;;0.90;0.65;;;;;;;;;;5014786;28;20199;-88
2023/09/22 13:39:16;;;;;;;0.70;0.50;;;;;;;;;;5014296;28;20305;-89
2023/09/22 13:41:44;;;;;;;2.08;0.73;;;;;;;;;;5014627;28;20246;-89
2023/09/22 13:44:12;;;;;;;0.75;0.47;;;;;;;;;;5025838;22;20334;31
2023/09/22 13:46:39;;;;;;;2.17;0.73;;;;;;;;;;5070794;28;20232;-85
2023/09/22 13:49:06;;;;;;;0.93;0.70;;;;;;;;;;5072572;28;20194;-86
2023/09/22 13:51:36;;;;;;;1.70;0.55;;;;;;;;;;5072984;28;20216;-86
2023/09/22 13:54:04;;;;;;;0.57;0.57;;;;;;;;;;5073062;28;20297;-86
2023/09/22 13:56:31;;;;;;;1.05;0.80;;;;;;;;;;5053366;28;20587;-85
2023/09/22 13:58:58;;;;;;;0.30;0.30;;;;;;;;;;5052351;28;20202;-86
2023/09/22 14:01:25;;;;;;;1.38;0.95;;;;;;;;;;5053586;28;20717;-85
2023/09/22 14:03:52;;;;;;;1.48;0.73;;;;;;;;;;5052256;28;20209;-87
2023/09/22 14:06:21;;;;;;;1.02;0.60;;;;;;;;;;5053269;28;20236;-85
2023/09/22 14:08:52;;;;;;;0.40;0.40;;;;;;;;;;5053609;28;20210;-85
2023/09/22 14:11:19;;;;;;;0.43;0.40;;;;;;;;;;5053570;28;20226;-84
2023/09/22 14:13:46;;;;;;;0.80;0.80;;;;;;;;;;5053150;28;20202;-84
2023/09/22 14:16:13;;;;;;;0.95;0.50;;;;;;;;;;5052495;28;20230;-84
2023/09/22 14:18:40;;;;;;;0.63;0.63;;;;;;;;;;5052994;28;20206;-84
2023/09/22 14:21:08;;;;;;;0.47;0.40;;;;;;;;;;5052459;28;20229;-84
2023/09/22 14:23:35;;;;;;;2.20;0.50;;;;;;;;;;5052480;28;20212;-85
2023/09/22 14:26:04;;;;;;;0.55;0.47;;;;;;;;;;5052009;28;20221;-85
2023/09/22 14:28:31;;;;;;;0.70;0.70;;;;;;;;;;5052697;28;20241;-83
2023/09/22 14:30:59;;;;;;;0.47;0.47;;;;;;;;;;5051857;28;20230;-84
2023/09/22 14:33:26;;;;;;;0.50;0.50;;;;;;;;;;5052736;28;20210;-84
2023/09/22 14:35:53;;;;;;;0.65;0.60;;;;;;;;;;5051896;28;20230;-84
2023/09/22 14:38:20;;;;;;;0.70;0.70;;;;;;;;;;5051147;28;20714;-83
2023/09/22 14:40:47;;;;;;;0.60;0.60;;;;;;;;;;5051758;28;20630;-85
2023/09/22 14:43:15;;;;;;;0.50;0.45;;;;;;;;;;5052243;28;20208;-85
2023/09/22 14:45:43;;;;;;;0.70;0.70;;;;;;;;;;5051564;28;20711;-84
2023/09/22 14:48:10;;;;;;;0.50;0.50;;;;;;;;;;5057369;28;20656;-84
2023/09/22 14:50:38;;;;;;;0.45;0.45;;;;;;;;;;5062721;28;20596;-85